createdAt,value
2023-03-19T00:00:36.998Z,95210
2023-03-19T00:01:46.765Z,95210
2023-03-19T00:02:56.518Z,95206
2023-03-19T00:04:06.016Z,95211
2023-03-19T00:05:14.691Z,95207
2023-03-19T00:06:23.435Z,95207
2023-03-19T00:07:33.079Z,95207
2023-03-19T00:08:42.831Z,95208
2023-03-19T00:09:52.469Z,95204
2023-03-19T00:11:01.142Z,95210
2023-03-19T00:12:10.844Z,95208
2023-03-19T00:13:20.534Z,95211
2023-03-19T00:14:30.229Z,95208
2023-03-19T00:15:39.935Z,95209
2023-03-19T00:16:48.651Z,95209
2023-03-19T00:17:57.359Z,95208
2023-03-19T00:19:07.041Z,95207
2023-03-19T00:20:14.734Z,95208
2023-03-19T00:21:25.980Z,95205
2023-03-19T00:22:34.153Z,95207
2023-03-19T00:23:42.877Z,95200
2023-03-19T00:24:52.603Z,95202
2023-03-19T00:26:02.345Z,95204
2023-03-19T00:27:11.984Z,95202
2023-03-19T00:28:21.692Z,95202
2023-03-19T00:29:30.374Z,95203
2023-03-19T00:30:40.141Z,95204
2023-03-19T00:31:49.746Z,95206
2023-03-19T00:32:58.530Z,95203
2023-03-19T00:34:07.142Z,95207
2023-03-19T00:35:16.835Z,95205
2023-03-19T00:36:26.497Z,95206
2023-03-19T00:37:36.222Z,95213
2023-03-19T00:38:45.944Z,95208
2023-03-19T00:39:55.676Z,95211
2023-03-19T00:41:05.424Z,95215
2023-03-19T00:42:14.114Z,95215
2023-03-19T00:43:24.020Z,95216
2023-03-19T00:44:33.715Z,95216
2023-03-19T00:45:42.459Z,95216
2023-03-19T00:46:52.091Z,95220
2023-03-19T00:48:00.920Z,95220
2023-03-19T00:49:10.638Z,95218
2023-03-19T00:50:20.291Z,95224
2023-03-19T00:51:28.996Z,95224
2023-03-19T00:52:37.681Z,95223
2023-03-19T00:53:46.387Z,95227
2023-03-19T00:54:56.121Z,95223
2023-03-19T00:56:05.817Z,95225
2023-03-19T00:57:14.456Z,95223
2023-03-19T00:58:23.225Z,95226
2023-03-19T00:59:32.893Z,95225
2023-03-19T01:00:41.581Z,95225
2023-03-19T01:01:50.273Z,95229
2023-03-19T01:02:59.967Z,95227
2023-03-19T01:04:08.751Z,95225
2023-03-19T01:05:18.367Z,95226
2023-03-19T01:06:26.072Z,95222
2023-03-19T01:07:34.745Z,95223
2023-03-19T01:08:43.436Z,95221
2023-03-19T01:09:51.102Z,95223
2023-03-19T01:11:00.769Z,95219
2023-03-19T01:12:10.491Z,95227
2023-03-19T01:13:20.164Z,95221
2023-03-19T01:14:29.828Z,95225
2023-03-19T01:15:37.525Z,95222
2023-03-19T01:16:46.147Z,95223
2023-03-19T01:17:55.851Z,95225
2023-03-19T01:19:04.579Z,95225
2023-03-19T01:20:13.259Z,95226
2023-03-19T01:21:22.011Z,95228
2023-03-19T01:22:30.608Z,95226
2023-03-19T01:23:40.293Z,95225
2023-03-19T01:24:47.948Z,95222
2023-03-19T01:25:56.609Z,95223
2023-03-19T01:27:06.278Z,95220
2023-03-19T01:28:16.008Z,95220
2023-03-19T01:29:25.648Z,95222
2023-03-19T01:30:34.565Z,95219
2023-03-19T01:31:43.988Z,95224
2023-03-19T01:32:53.720Z,95221
2023-03-19T01:34:02.372Z,95221
2023-03-19T01:35:11.017Z,95223
2023-03-19T01:36:20.690Z,95223
2023-03-19T01:37:30.349Z,95224
2023-03-19T01:38:39.031Z,95221
2023-03-19T01:39:48.709Z,95227
2023-03-19T01:40:58.372Z,95229
2023-03-19T01:42:08.056Z,95232
2023-03-19T01:43:17.783Z,95228
2023-03-19T01:44:27.477Z,95226
2023-03-19T01:45:37.147Z,95223
2023-03-19T01:46:46.934Z,95223
2023-03-19T01:47:56.510Z,95219
2023-03-19T01:49:05.210Z,95221
2023-03-19T01:50:14.896Z,95218
2023-03-19T01:51:24.590Z,95213
2023-03-19T01:52:33.278Z,95220
2023-03-19T01:53:42.993Z,95218
2023-03-19T01:54:52.721Z,95218
2023-03-19T01:56:01.376Z,95221
2023-03-19T01:57:11.106Z,95218
2023-03-19T01:58:19.849Z,95221
2023-03-19T01:59:29.510Z,95223
2023-03-19T02:00:39.230Z,95224
2023-03-19T02:01:48.911Z,95223
2023-03-19T02:02:58.608Z,95225
2023-03-19T02:04:07.453Z,95227
2023-03-19T02:05:17.054Z,95225
2023-03-19T02:06:26.769Z,95225
2023-03-19T02:07:35.446Z,95224
2023-03-19T02:08:45.155Z,95232
2023-03-19T02:09:53.853Z,95230
2023-03-19T02:11:02.558Z,95229
2023-03-19T02:12:12.241Z,95228
2023-03-19T02:13:19.997Z,95230
2023-03-19T02:14:28.674Z,95234
2023-03-19T02:15:38.396Z,95234
2023-03-19T02:16:47.149Z,95235
2023-03-19T02:17:55.813Z,95240
2023-03-19T02:19:05.547Z,95240
2023-03-19T02:20:15.197Z,95238
2023-03-19T02:21:24.889Z,95237
2023-03-19T02:22:33.564Z,95242
2023-03-19T02:23:42.309Z,95236
2023-03-19T02:24:52.025Z,95232
2023-03-19T02:26:01.706Z,95228
2023-03-19T02:27:11.382Z,95227
2023-03-19T02:28:20.099Z,95226
2023-03-19T02:29:28.809Z,95220
2023-03-19T02:30:38.496Z,95218
2023-03-19T02:31:46.248Z,95218
2023-03-19T02:32:55.095Z,95214
2023-03-19T02:34:04.615Z,95211
2023-03-19T02:35:13.327Z,95215
2023-03-19T02:36:22.003Z,95215
2023-03-19T02:37:33.607Z,95219
2023-03-19T02:38:41.385Z,95218
2023-03-19T02:39:51.095Z,95224
2023-03-19T02:41:00.796Z,95225
2023-03-19T02:42:10.495Z,95224
2023-03-19T02:43:20.203Z,95225
2023-03-19T02:44:27.928Z,95229
2023-03-19T02:45:37.649Z,95233
2023-03-19T02:46:46.335Z,95234
2023-03-19T02:47:56.020Z,95238
2023-03-19T02:49:05.794Z,95241
2023-03-19T02:50:14.494Z,95242
2023-03-19T02:51:23.165Z,95244
2023-03-19T02:52:32.894Z,95248
2023-03-19T02:53:40.731Z,95248
2023-03-19T02:54:50.430Z,95247
2023-03-19T02:55:59.144Z,95245
2023-03-19T02:57:08.847Z,95246
2023-03-19T02:58:18.633Z,95251
2023-03-19T02:59:27.339Z,95251
2023-03-19T03:00:36.331Z,95254
2023-03-19T03:01:45.773Z,95250
2023-03-19T03:02:54.399Z,95252
2023-03-19T03:04:04.111Z,95250
2023-03-19T03:05:13.870Z,95247
2023-03-19T03:06:22.524Z,95245
2023-03-19T03:07:31.221Z,95244
2023-03-19T03:08:40.009Z,95247
2023-03-19T03:09:48.687Z,95247
2023-03-19T03:10:58.387Z,95242
2023-03-19T03:12:07.088Z,95243
2023-03-19T03:13:15.819Z,95245
2023-03-19T03:14:24.501Z,95254
2023-03-19T03:15:34.249Z,95252
2023-03-19T03:16:43.993Z,95255
2023-03-19T03:17:52.671Z,95258
2023-03-19T03:19:02.468Z,95257
2023-03-19T03:20:12.195Z,95264
2023-03-19T03:21:21.913Z,95262
2023-03-19T03:22:30.575Z,95260
2023-03-19T03:23:39.321Z,95262
2023-03-19T03:24:48.996Z,95267
2023-03-19T03:25:58.686Z,95263
2023-03-19T03:27:06.392Z,95261
2023-03-19T03:28:15.064Z,95264
2023-03-19T03:29:24.803Z,95260
2023-03-19T03:30:34.713Z,95256
2023-03-19T03:31:43.238Z,95260
2023-03-19T03:32:51.937Z,95255
2023-03-19T03:34:00.603Z,95254
2023-03-19T03:35:10.319Z,95251
2023-03-19T03:36:20.055Z,95251
2023-03-19T03:37:28.754Z,95253
2023-03-19T03:38:38.453Z,95255
2023-03-19T03:39:47.161Z,95255
2023-03-19T03:40:55.890Z,95254
2023-03-19T03:42:05.596Z,95253
2023-03-19T03:43:14.268Z,95254
2023-03-19T03:44:24.006Z,95253
2023-03-19T03:45:31.788Z,95259
2023-03-19T03:46:41.394Z,95258
2023-03-19T03:47:51.074Z,95259
2023-03-19T03:48:59.785Z,95263
2023-03-19T03:50:09.490Z,95261
2023-03-19T03:51:18.354Z,95260
2023-03-19T03:52:27.990Z,95264
2023-03-19T03:53:37.692Z,95266
2023-03-19T03:54:46.426Z,95266
2023-03-19T03:55:55.103Z,95263
2023-03-19T03:57:04.811Z,95268
2023-03-19T03:58:13.515Z,95266
2023-03-19T03:59:23.221Z,95265
2023-03-19T04:00:32.245Z,95268
2023-03-19T04:01:41.722Z,95275
2023-03-19T04:02:52.417Z,95270
2023-03-19T04:04:01.149Z,95273
2023-03-19T04:05:10.852Z,95271
2023-03-19T04:06:18.637Z,95276
2023-03-19T04:07:27.252Z,95278
2023-03-19T04:08:36.957Z,95278
2023-03-19T04:09:45.699Z,95278
2023-03-19T04:10:55.363Z,95279
2023-03-19T04:12:04.052Z,95277
2023-03-19T04:13:13.765Z,95278
2023-03-19T04:14:23.466Z,95281
2023-03-19T04:15:31.167Z,95282
2023-03-19T04:16:40.915Z,95285
2023-03-19T04:17:50.603Z,95278
2023-03-19T04:19:00.359Z,95276
2023-03-19T04:20:10.106Z,95273
2023-03-19T04:21:18.818Z,95281
2023-03-19T04:22:28.515Z,95281
2023-03-19T04:23:38.255Z,95283
2023-03-19T04:24:46.018Z,95294
2023-03-19T04:25:54.734Z,95291
2023-03-19T04:27:04.422Z,95298
2023-03-19T04:28:12.098Z,95290
2023-03-19T04:29:20.850Z,95293
2023-03-19T04:30:30.602Z,95293
2023-03-19T04:31:40.329Z,95289
2023-03-19T04:32:50.028Z,95288
2023-03-19T04:33:58.705Z,95290
2023-03-19T04:35:07.447Z,95289
2023-03-19T04:36:17.151Z,95291
2023-03-19T04:37:25.862Z,95294
2023-03-19T04:38:34.545Z,95294
2023-03-19T04:39:43.251Z,95298
2023-03-19T04:40:52.962Z,95295
2023-03-19T04:42:02.678Z,95296
2023-03-19T04:43:11.344Z,95297
2023-03-19T04:44:20.028Z,95298
2023-03-19T04:45:29.749Z,95295
2023-03-19T04:46:37.472Z,95296
2023-03-19T04:47:46.144Z,95298
2023-03-19T04:48:55.903Z,95297
2023-03-19T04:50:05.648Z,95299
2023-03-19T04:51:15.345Z,95296
2023-03-19T04:52:24.021Z,95302
2023-03-19T04:53:32.736Z,95303
2023-03-19T04:54:42.450Z,95299
2023-03-19T04:55:51.158Z,95298
2023-03-19T04:57:01.009Z,95300
2023-03-19T04:58:09.560Z,95300
2023-03-19T04:59:20.158Z,95306
2023-03-19T05:00:29.030Z,95303
2023-03-19T05:01:37.738Z,95307
2023-03-19T05:02:46.441Z,95309
2023-03-19T05:03:56.212Z,95310
2023-03-19T05:05:03.846Z,95310
2023-03-19T05:06:12.549Z,95309
2023-03-19T05:07:21.275Z,95308
2023-03-19T05:08:29.926Z,95312
2023-03-19T05:09:39.623Z,95314
2023-03-19T05:10:48.331Z,95312
2023-03-19T05:11:58.056Z,95314
2023-03-19T05:13:07.729Z,95311
2023-03-19T05:14:17.465Z,95312
2023-03-19T05:15:26.169Z,95311
2023-03-19T05:16:34.849Z,95316
2023-03-19T05:17:44.537Z,95321
2023-03-19T05:18:54.242Z,95324
2023-03-19T05:20:02.962Z,95330
2023-03-19T05:21:11.680Z,95332
2023-03-19T05:22:21.374Z,95334
2023-03-19T05:23:29.061Z,95336
2023-03-19T05:24:37.755Z,95335
2023-03-19T05:25:46.522Z,95339
2023-03-19T05:26:56.206Z,95337
2023-03-19T05:28:05.904Z,95337
2023-03-19T05:29:15.592Z,95335
2023-03-19T05:30:25.351Z,95334
2023-03-19T05:31:35.094Z,95344
2023-03-19T05:32:43.738Z,95343
2023-03-19T05:33:53.414Z,95349
2023-03-19T05:35:02.109Z,95347
2023-03-19T05:36:10.855Z,95349
2023-03-19T05:37:20.535Z,95352
2023-03-19T05:38:29.222Z,95354
2023-03-19T05:39:37.914Z,95356
2023-03-19T05:40:47.640Z,95355
2023-03-19T05:41:56.345Z,95362
2023-03-19T05:43:06.106Z,95356
2023-03-19T05:44:14.829Z,95362
2023-03-19T05:45:24.577Z,95354
2023-03-19T05:46:34.334Z,95358
2023-03-19T05:47:43.951Z,95361
2023-03-19T05:48:53.654Z,95367
2023-03-19T05:50:03.362Z,95369
2023-03-19T05:51:12.102Z,95369
2023-03-19T05:52:21.776Z,95373
2023-03-19T05:53:30.456Z,95375
2023-03-19T05:54:40.177Z,95374
2023-03-19T05:55:49.867Z,95375
2023-03-19T05:56:56.555Z,95379
2023-03-19T05:58:07.293Z,95374
2023-03-19T05:59:14.987Z,95377
2023-03-19T06:00:24.696Z,95376
2023-03-19T06:01:34.429Z,95380
2023-03-19T06:02:43.168Z,95383
2023-03-19T06:03:52.819Z,95378
2023-03-19T06:05:02.493Z,95386
2023-03-19T06:06:11.183Z,95384
2023-03-19T06:07:20.976Z,95386
2023-03-19T06:08:30.685Z,95387
2023-03-19T06:09:39.399Z,95390
2023-03-19T06:10:49.112Z,95397
2023-03-19T06:11:56.815Z,95396
2023-03-19T06:13:05.507Z,95395
2023-03-19T06:14:15.190Z,95402
2023-03-19T06:15:24.974Z,95399
2023-03-19T06:16:34.718Z,95401
2023-03-19T06:17:43.404Z,95406
2023-03-19T06:18:52.131Z,95404
2023-03-19T06:20:01.823Z,95415
2023-03-19T06:21:10.548Z,95414
2023-03-19T06:22:19.252Z,95413
2023-03-19T06:23:27.950Z,95418
2023-03-19T06:24:37.643Z,95417
2023-03-19T06:25:47.422Z,95415
2023-03-19T06:26:57.121Z,95419
2023-03-19T06:28:05.817Z,95416
2023-03-19T06:29:15.603Z,95419
2023-03-19T06:30:24.311Z,95421
2023-03-19T06:31:34.100Z,95424
2023-03-19T06:32:42.861Z,95427
2023-03-19T06:33:52.522Z,95426
2023-03-19T06:35:02.257Z,95432
2023-03-19T06:36:12.424Z,95432
2023-03-19T06:37:22.173Z,95442
2023-03-19T06:38:32.893Z,95440
2023-03-19T06:39:41.597Z,95443
2023-03-19T06:40:50.325Z,95438
2023-03-19T06:42:00.132Z,95442
2023-03-19T06:43:08.787Z,95444
2023-03-19T06:44:17.470Z,95447
2023-03-19T06:45:26.209Z,95449
2023-03-19T06:46:35.972Z,95448
2023-03-19T06:47:45.672Z,95452
2023-03-19T06:48:56.365Z,95456
2023-03-19T06:50:05.137Z,95449
2023-03-19T06:51:14.747Z,95448
2023-03-19T06:52:24.521Z,95454
2023-03-19T06:53:34.200Z,95454
2023-03-19T06:54:41.874Z,95448
2023-03-19T06:55:50.576Z,95453
2023-03-19T06:57:00.318Z,95455
2023-03-19T06:58:09.003Z,95451
2023-03-19T06:59:17.711Z,95450
2023-03-19T07:00:27.392Z,95456
2023-03-19T07:01:37.100Z,95458
2023-03-19T07:02:46.826Z,95463
2023-03-19T07:03:55.581Z,95468
2023-03-19T07:05:05.205Z,95466
2023-03-19T07:06:14.989Z,95468
2023-03-19T07:07:23.758Z,95476
2023-03-19T07:08:32.447Z,95481
2023-03-19T07:09:41.125Z,95485
2023-03-19T07:10:49.867Z,95485
2023-03-19T07:11:59.566Z,95483
2023-03-19T07:13:08.275Z,95483
2023-03-19T07:14:16.960Z,95485
2023-03-19T07:15:26.661Z,95491
2023-03-19T07:16:34.437Z,95493
2023-03-19T07:17:43.119Z,95493
2023-03-19T07:18:52.889Z,95494
2023-03-19T07:20:02.587Z,95500
2023-03-19T07:21:12.303Z,95496
2023-03-19T07:22:21.033Z,95503
2023-03-19T07:23:30.704Z,95503
2023-03-19T07:24:40.395Z,95508
2023-03-19T07:25:48.084Z,95506
2023-03-19T07:26:56.799Z,95506
2023-03-19T07:28:05.504Z,95511
2023-03-19T07:29:15.174Z,95513
2023-03-19T07:30:24.874Z,95517
2023-03-19T07:31:32.650Z,95519
2023-03-19T07:32:41.311Z,95526
2023-03-19T07:33:50.998Z,95530
2023-03-19T07:35:00.806Z,95532
2023-03-19T07:36:09.718Z,95536
2023-03-19T07:37:21.982Z,95535
2023-03-19T07:38:29.140Z,95537
2023-03-19T07:39:38.799Z,95543
2023-03-19T07:40:59.232Z,95537
2023-03-19T07:41:56.183Z,95543
2023-03-19T07:43:05.894Z,95540
2023-03-19T07:44:14.592Z,95543
2023-03-19T07:45:25.316Z,95544
2023-03-19T07:46:34.052Z,95546
2023-03-19T07:47:42.743Z,95544
2023-03-19T07:48:53.402Z,95544
2023-03-19T07:50:02.115Z,95547
2023-03-19T07:51:11.820Z,95550
2023-03-19T07:52:21.557Z,95546
2023-03-19T07:53:31.305Z,95549
2023-03-19T07:54:41.050Z,95548
2023-03-19T07:55:49.759Z,95552
2023-03-19T07:56:58.532Z,95549
2023-03-19T07:58:08.237Z,95549
2023-03-19T07:59:17.918Z,95550
2023-03-19T08:00:27.664Z,95547
2023-03-19T08:01:36.370Z,95548
2023-03-19T08:02:45.092Z,95550
2023-03-19T08:03:54.756Z,95543
2023-03-19T08:05:03.430Z,95542
2023-03-19T08:06:12.153Z,95543
2023-03-19T08:07:21.859Z,95542
2023-03-19T08:08:31.550Z,95548
2023-03-19T08:09:41.253Z,95540
2023-03-19T08:10:51.050Z,95540
2023-03-19T08:11:59.683Z,95545
2023-03-19T08:13:09.376Z,95542
2023-03-19T08:14:17.084Z,95542
2023-03-19T08:15:26.823Z,95544
2023-03-19T08:16:34.557Z,95541
2023-03-19T08:17:43.222Z,95545
2023-03-19T08:18:52.953Z,95544
2023-03-19T08:20:02.625Z,95548
2023-03-19T08:21:12.335Z,95546
2023-03-19T08:22:21.991Z,95548
2023-03-19T08:23:29.640Z,95555
2023-03-19T08:24:39.314Z,95551
2023-03-19T08:25:48.020Z,95557
2023-03-19T08:26:57.684Z,95556
2023-03-19T08:28:07.335Z,95547
2023-03-19T08:29:15.157Z,95544
2023-03-19T08:30:23.644Z,95549
2023-03-19T08:31:33.315Z,95548
2023-03-19T08:32:41.043Z,95544
2023-03-19T08:33:50.637Z,95542
2023-03-19T08:34:59.300Z,95546
2023-03-19T08:36:09.014Z,95543
2023-03-19T08:37:18.677Z,95548
2023-03-19T08:38:28.348Z,95553
2023-03-19T08:39:37.038Z,95556
2023-03-19T08:40:46.763Z,95555
2023-03-19T08:41:56.460Z,95558
2023-03-19T08:43:05.149Z,95560
2023-03-19T08:44:14.875Z,95560
2023-03-19T08:45:23.686Z,95565
2023-03-19T08:46:32.339Z,95564
2023-03-19T08:47:41.911Z,95568
2023-03-19T08:48:51.577Z,95566
2023-03-19T08:50:01.260Z,95569
2023-03-19T08:51:10.945Z,95570
2023-03-19T08:52:20.582Z,95572
2023-03-19T08:53:30.245Z,95576
2023-03-19T08:54:39.911Z,95575
2023-03-19T08:55:49.617Z,95582
2023-03-19T08:56:58.288Z,95580
2023-03-19T08:58:07.054Z,95576
2023-03-19T08:59:16.730Z,95579
2023-03-19T09:00:25.391Z,95585
2023-03-19T09:01:35.070Z,95586
2023-03-19T09:02:43.715Z,95582
2023-03-19T09:03:52.377Z,95585
2023-03-19T09:05:02.058Z,95584
2023-03-19T09:06:10.740Z,95586
2023-03-19T09:07:19.423Z,95584
2023-03-19T09:08:29.079Z,95585
2023-03-19T09:09:38.771Z,95587
2023-03-19T09:10:48.701Z,95590
2023-03-19T09:11:57.140Z,95583
2023-03-19T09:13:06.820Z,95592
2023-03-19T09:14:16.546Z,95590
2023-03-19T09:15:26.210Z,95591
2023-03-19T09:16:34.884Z,95589
2023-03-19T09:17:44.545Z,95593
2023-03-19T09:18:53.206Z,95594
2023-03-19T09:20:01.848Z,95594
2023-03-19T09:21:11.538Z,95598
2023-03-19T09:22:21.206Z,95598
2023-03-19T09:23:30.872Z,95598
2023-03-19T09:24:40.863Z,95600
2023-03-19T09:25:49.581Z,95597
2023-03-19T09:26:59.334Z,95601
2023-03-19T09:28:08.021Z,95599
2023-03-19T09:29:17.676Z,95599
2023-03-19T09:30:26.329Z,95598
2023-03-19T09:31:36.076Z,95600
2023-03-19T09:32:45.712Z,95599
2023-03-19T09:33:54.366Z,95599
2023-03-19T09:35:03.027Z,95601
2023-03-19T09:36:12.738Z,95597
2023-03-19T09:37:21.413Z,95601
2023-03-19T09:38:30.073Z,95598
2023-03-19T09:39:38.828Z,95600
2023-03-19T09:40:47.489Z,95598
2023-03-19T09:41:57.184Z,95604
2023-03-19T09:43:05.846Z,95604
2023-03-19T09:44:15.623Z,95610
2023-03-19T09:45:25.245Z,95606
2023-03-19T09:46:33.981Z,95609
2023-03-19T09:47:42.606Z,95611
2023-03-19T09:48:52.540Z,95609
2023-03-19T09:50:01.189Z,95615
2023-03-19T09:51:10.860Z,95617
2023-03-19T09:52:19.522Z,95611
2023-03-19T09:53:29.191Z,95618
2023-03-19T09:54:37.871Z,95623
2023-03-19T09:55:47.563Z,95619
2023-03-19T09:56:57.215Z,95622
2023-03-19T09:58:05.874Z,95620
2023-03-19T09:59:14.532Z,95618
2023-03-19T10:00:24.250Z,95613
2023-03-19T10:01:32.923Z,95613
2023-03-19T10:02:42.569Z,95615
2023-03-19T10:03:51.304Z,95618
2023-03-19T10:04:59.880Z,95619
2023-03-19T10:06:09.551Z,95616
2023-03-19T10:07:18.184Z,95617
2023-03-19T10:08:26.865Z,95617
2023-03-19T10:09:35.538Z,95616
2023-03-19T10:10:44.177Z,95610
2023-03-19T10:11:53.836Z,95607
2023-03-19T10:13:02.592Z,95609
2023-03-19T10:14:14.557Z,95607
2023-03-19T10:15:21.952Z,95606
2023-03-19T10:16:30.671Z,95600
2023-03-19T10:17:41.321Z,95602
2023-03-19T10:18:50.012Z,95599
2023-03-19T10:19:59.707Z,95602
2023-03-19T10:21:09.389Z,95600
2023-03-19T10:22:18.056Z,95601
2023-03-19T10:23:26.739Z,95597
2023-03-19T10:24:36.408Z,95599
2023-03-19T10:25:44.067Z,95595
2023-03-19T10:26:52.779Z,95592
2023-03-19T10:28:01.479Z,95595
2023-03-19T10:29:10.111Z,95590
2023-03-19T10:30:19.780Z,95598
2023-03-19T10:31:28.476Z,95602
2023-03-19T10:32:37.170Z,95597
2023-03-19T10:33:46.784Z,95598
2023-03-19T10:34:55.436Z,95597
2023-03-19T10:36:05.327Z,95597
2023-03-19T10:37:15.835Z,95602
2023-03-19T10:38:24.509Z,95598
2023-03-19T10:39:34.151Z,95597
2023-03-19T10:40:42.804Z,95595
2023-03-19T10:41:52.491Z,95592
2023-03-19T10:43:02.153Z,95595
2023-03-19T10:44:09.806Z,95603
2023-03-19T10:45:19.470Z,95605
2023-03-19T10:46:29.229Z,95607
2023-03-19T10:47:38.842Z,95606
2023-03-19T10:48:48.498Z,95607
2023-03-19T10:49:57.162Z,95599
2023-03-19T10:51:06.893Z,95600
2023-03-19T10:52:16.528Z,95599
2023-03-19T10:53:26.184Z,95601
2023-03-19T10:54:35.842Z,95598
2023-03-19T10:55:44.516Z,95598
2023-03-19T10:56:53.193Z,95595
2023-03-19T10:58:03.858Z,95594
2023-03-19T10:59:11.501Z,95593
2023-03-19T11:00:21.147Z,95592
2023-03-19T11:01:30.838Z,95586
2023-03-19T11:02:40.508Z,95593
2023-03-19T11:03:50.236Z,95587
2023-03-19T11:04:58.819Z,95592
2023-03-19T11:06:07.507Z,95589
2023-03-19T11:07:17.241Z,95588
2023-03-19T11:08:35.492Z,95587
2023-03-19T11:09:35.438Z,95587
2023-03-19T11:10:45.091Z,95582
2023-03-19T11:11:54.765Z,95576
2023-03-19T11:13:03.421Z,95578
2023-03-19T11:14:12.064Z,95579
2023-03-19T11:15:21.737Z,95583
2023-03-19T11:16:31.501Z,95581
2023-03-19T11:17:40.099Z,95584
2023-03-19T11:18:49.784Z,95582
2023-03-19T11:19:59.407Z,95584
2023-03-19T11:21:08.143Z,95580
2023-03-19T11:22:18.448Z,95584
2023-03-19T11:23:26.508Z,95583
2023-03-19T11:24:35.149Z,95587
2023-03-19T11:25:44.887Z,95587
2023-03-19T11:26:53.509Z,95583
2023-03-19T11:28:03.197Z,95580
2023-03-19T11:29:12.861Z,95580
2023-03-19T11:30:20.517Z,95573
2023-03-19T11:31:30.215Z,95577
2023-03-19T11:32:38.957Z,95580
2023-03-19T11:33:48.571Z,95580
2023-03-19T11:34:58.230Z,95581
2023-03-19T11:36:08.009Z,95578
2023-03-19T11:37:17.587Z,95582
2023-03-19T11:38:27.259Z,95577
2023-03-19T11:39:36.035Z,95577
2023-03-19T11:40:44.646Z,95575
2023-03-19T11:41:54.988Z,95575
2023-03-19T11:43:03.650Z,95571
2023-03-19T11:44:13.309Z,95574
2023-03-19T11:45:20.960Z,95568
2023-03-19T11:46:30.725Z,95571
2023-03-19T11:47:41.434Z,95569
2023-03-19T11:48:50.123Z,95567
2023-03-19T11:49:59.800Z,95563
2023-03-19T11:51:08.509Z,95563
2023-03-19T11:52:18.179Z,95561
2023-03-19T11:53:27.888Z,95562
2023-03-19T11:54:37.563Z,95559
2023-03-19T11:55:47.362Z,95565
2023-03-19T11:56:57.002Z,95558
2023-03-19T11:58:05.646Z,95556
2023-03-19T11:59:15.334Z,95553
2023-03-19T12:00:25.050Z,95555
2023-03-19T12:01:34.731Z,95551
2023-03-19T12:02:43.520Z,95556
2023-03-19T12:03:53.074Z,95554
2023-03-19T12:05:02.729Z,95548
2023-03-19T12:06:11.419Z,95546
2023-03-19T12:07:20.118Z,95541
2023-03-19T12:08:29.778Z,95542
2023-03-19T12:09:37.471Z,95545
2023-03-19T12:10:46.169Z,95548
2023-03-19T12:11:54.860Z,95545
2023-03-19T12:13:03.535Z,95545
2023-03-19T12:14:13.246Z,95541
2023-03-19T12:15:20.985Z,95542
2023-03-19T12:16:30.683Z,95542
2023-03-19T12:17:41.322Z,95540
2023-03-19T12:18:50.980Z,95540
2023-03-19T12:19:59.679Z,95536
2023-03-19T12:21:09.396Z,95537
2023-03-19T12:22:19.120Z,95527
2023-03-19T12:23:29.792Z,95535
2023-03-19T12:24:38.497Z,95532
2023-03-19T12:25:47.240Z,95532
2023-03-19T12:26:56.930Z,95536
2023-03-19T12:28:05.605Z,95533
2023-03-19T12:29:15.273Z,95532
2023-03-19T12:30:24.927Z,95530
2023-03-19T12:31:33.696Z,95529
2023-03-19T12:32:43.447Z,95528
2023-03-19T12:33:51.034Z,95525
2023-03-19T12:35:00.706Z,95528
2023-03-19T12:36:10.414Z,95526
2023-03-19T12:37:20.105Z,95525
2023-03-19T12:38:29.790Z,95525
2023-03-19T12:39:39.483Z,95523
2023-03-19T12:40:48.202Z,95517
2023-03-19T12:41:57.878Z,95514
2023-03-19T12:43:06.567Z,95513
2023-03-19T12:44:16.249Z,95515
2023-03-19T12:45:25.939Z,95511
2023-03-19T12:46:33.683Z,95518
2023-03-19T12:47:42.264Z,95514
2023-03-19T12:48:51.001Z,95510
2023-03-19T12:49:59.649Z,95506
2023-03-19T12:51:09.359Z,95509
2023-03-19T12:52:19.063Z,95508
2023-03-19T12:53:28.749Z,95507
2023-03-19T12:54:38.452Z,95506
2023-03-19T12:55:48.140Z,95506
2023-03-19T12:56:57.814Z,95502
2023-03-19T12:58:07.504Z,95502
2023-03-19T12:59:16.181Z,95503
2023-03-19T13:00:25.888Z,95501
2023-03-19T13:01:34.612Z,95502
2023-03-19T13:02:44.258Z,95503
2023-03-19T13:03:53.937Z,95503
2023-03-19T13:05:03.623Z,95499
2023-03-19T13:06:13.311Z,95495
2023-03-19T13:07:22.997Z,95492
2023-03-19T13:08:32.637Z,95497
2023-03-19T13:09:42.319Z,95493
2023-03-19T13:10:52.020Z,95494
2023-03-19T13:12:02.705Z,95491
2023-03-19T13:13:12.384Z,95489
2023-03-19T13:14:21.085Z,95489
2023-03-19T13:15:29.770Z,95491
2023-03-19T13:16:39.454Z,95494
2023-03-19T13:17:48.129Z,95497
2023-03-19T13:18:57.787Z,95493
2023-03-19T13:20:06.461Z,95490
2023-03-19T13:21:14.157Z,95487
2023-03-19T13:22:23.852Z,95493
2023-03-19T13:23:31.503Z,95490
2023-03-19T13:24:41.167Z,95490
2023-03-19T13:25:50.902Z,95488
2023-03-19T13:27:00.545Z,95493
2023-03-19T13:28:09.353Z,95487
2023-03-19T13:29:17.012Z,95483
2023-03-19T13:30:25.669Z,95485
2023-03-19T13:31:35.536Z,95488
2023-03-19T13:32:44.094Z,95486
2023-03-19T13:33:53.764Z,95487
2023-03-19T13:35:03.438Z,95488
2023-03-19T13:36:13.161Z,95488
2023-03-19T13:37:22.837Z,95482
2023-03-19T13:38:31.530Z,95481
2023-03-19T13:39:40.208Z,95483
2023-03-19T13:40:49.905Z,95480
2023-03-19T13:41:58.557Z,95479
2023-03-19T13:43:13.116Z,95478
2023-03-19T13:44:18.858Z,95478
2023-03-19T13:45:28.556Z,95477
2023-03-19T13:46:38.414Z,95483
2023-03-19T13:47:46.953Z,95477
2023-03-19T13:48:56.628Z,95481
2023-03-19T13:50:05.364Z,95479
2023-03-19T13:51:15.709Z,95482
2023-03-19T13:52:23.696Z,95482
2023-03-19T13:53:33.370Z,95479
2023-03-19T13:54:42.041Z,95482
2023-03-19T13:55:51.736Z,95483
2023-03-19T13:57:01.436Z,95481
2023-03-19T13:58:11.083Z,95482
2023-03-19T13:59:19.732Z,95476
2023-03-19T14:00:29.440Z,95473
2023-03-19T14:01:39.102Z,95471
2023-03-19T14:02:47.775Z,95472
2023-03-19T14:03:56.497Z,95467
2023-03-19T14:05:06.144Z,95464
2023-03-19T14:06:14.893Z,95467
2023-03-19T14:07:24.527Z,95468
2023-03-19T14:08:33.212Z,95468
2023-03-19T14:09:42.897Z,95463
2023-03-19T14:10:52.634Z,95465
2023-03-19T14:12:01.281Z,95463
2023-03-19T14:13:09.960Z,95465
2023-03-19T14:14:19.644Z,95461
2023-03-19T14:15:29.349Z,95457
2023-03-19T14:16:39.065Z,95459
2023-03-19T14:17:47.689Z,95460
2023-03-19T14:18:57.365Z,95454
2023-03-19T14:20:09.194Z,95459
2023-03-19T14:21:21.913Z,95455
2023-03-19T14:22:27.362Z,95463
2023-03-19T14:23:41.074Z,95455
2023-03-19T14:24:56.134Z,95457
2023-03-19T14:25:57.325Z,95456
2023-03-19T14:27:04.981Z,95459
2023-03-19T14:28:14.639Z,95456
2023-03-19T14:29:24.296Z,95457
2023-03-19T14:30:34.193Z,95457
2023-03-19T14:31:43.938Z,95454
2023-03-19T14:32:52.412Z,95451
2023-03-19T14:34:02.027Z,95452
2023-03-19T14:35:11.719Z,95456
2023-03-19T14:36:21.426Z,95457
2023-03-19T14:37:31.138Z,95460
2023-03-19T14:38:40.813Z,95455
2023-03-19T14:39:49.450Z,95448
2023-03-19T14:40:58.181Z,95450
2023-03-19T14:42:06.804Z,95448
2023-03-19T14:43:15.472Z,95448
2023-03-19T14:44:25.119Z,95449
2023-03-19T14:45:33.791Z,95451
2023-03-19T14:46:42.444Z,95449
2023-03-19T14:47:52.105Z,95447
2023-03-19T14:49:00.758Z,95450
2023-03-19T14:50:10.431Z,95451
2023-03-19T14:51:19.124Z,95444